createdAt,value
2018-12-17T00:00:45.827Z,22.80
2018-12-17T00:03:16.921Z,23.30
2018-12-17T00:05:47.880Z,25.53
2018-12-17T00:08:18.864Z,25.57
2018-12-17T00:10:47.913Z,21.93
2018-12-17T00:13:16.921Z,21.90
2018-12-17T00:15:46.326Z,22.37
2018-12-17T00:18:16.560Z,23.67
2018-12-17T00:20:45.627Z,24.17
2018-12-17T00:23:14.684Z,21.77
2018-12-17T00:25:45.763Z,23.77
2018-12-17T00:28:14.793Z,24.60
2018-12-17T00:30:43.823Z,23.33
2018-12-17T00:33:12.912Z,23.23
2018-12-17T00:35:41.971Z,23.30
2018-12-17T00:38:10.934Z,22.27
2018-12-17T00:40:39.927Z,22.90
2018-12-17T00:43:08.998Z,25.03
2018-12-17T00:45:38.030Z,24.83
2018-12-17T00:48:07.043Z,22.97
2018-12-17T00:50:36.098Z,23.80
2018-12-17T00:53:05.111Z,23.27
2018-12-17T00:55:34.177Z,22.80
2018-12-17T00:58:03.217Z,22.83
2018-12-17T01:00:32.208Z,23.10
2018-12-17T01:03:01.356Z,23.20
2018-12-17T01:05:30.313Z,22.77
2018-12-17T01:07:59.325Z,23.33
2018-12-17T01:10:28.551Z,22.33
2018-12-17T01:12:57.607Z,22.13
2018-12-17T01:15:26.611Z,22.83
2018-12-17T01:17:55.694Z,23.47
2018-12-17T01:20:24.799Z,23.60
2018-12-17T01:22:53.783Z,23.17
2018-12-17T01:25:22.811Z,22.00
2018-12-17T01:27:51.961Z,22.90
2018-12-17T01:30:21.027Z,22.47
2018-12-17T01:32:50.160Z,28.67
2018-12-17T01:35:19.343Z,20.93
2018-12-17T01:37:48.370Z,21.77
2018-12-17T01:40:17.326Z,21.07
2018-12-17T01:42:46.327Z,22.20
2018-12-17T01:45:15.337Z,22.03
2018-12-17T01:47:44.335Z,20.13
2018-12-17T01:50:13.398Z,20.80
2018-12-17T01:52:42.451Z,22.10
2018-12-17T01:55:11.509Z,22.30
2018-12-17T01:57:40.598Z,22.40
2018-12-17T02:00:09.917Z,22.50
2018-12-17T02:02:39.101Z,25.03
2018-12-17T02:05:08.160Z,23.97
2018-12-17T02:07:37.232Z,23.70
2018-12-17T02:10:06.296Z,22.10
2018-12-17T02:12:36.425Z,23.90
2018-12-17T02:15:05.726Z,24.30
2018-12-17T02:17:34.763Z,26.90
2018-12-17T02:20:04.284Z,22.67
2018-12-17T02:22:33.658Z,22.10
2018-12-17T02:25:02.893Z,21.83
2018-12-17T02:27:32.048Z,23.20
2018-12-17T02:30:01.077Z,23.63
2018-12-17T02:32:32.152Z,22.27
2018-12-17T02:35:01.254Z,21.73
2018-12-17T02:37:30.484Z,22.37
2018-12-17T02:39:59.829Z,22.80
2018-12-17T02:42:28.873Z,24.53
2018-12-17T02:44:58.006Z,22.63
2018-12-17T02:47:27.072Z,22.57
2018-12-17T02:49:56.226Z,22.53
2018-12-17T02:52:25.247Z,22.10
2018-12-17T02:54:54.321Z,20.97
2018-12-17T02:57:23.374Z,21.83
2018-12-17T02:59:52.441Z,21.93
2018-12-17T03:02:21.508Z,21.07
2018-12-17T03:04:50.530Z,21.80
2018-12-17T03:07:19.588Z,22.40
2018-12-17T03:09:48.648Z,23.20
2018-12-17T03:12:17.680Z,21.03
2018-12-17T03:14:46.794Z,21.43
2018-12-17T03:17:15.813Z,23.50
2018-12-17T03:19:44.864Z,22.90
2018-12-17T03:22:14.908Z,22.17
2018-12-17T03:24:43.981Z,21.80
2018-12-17T03:27:13.007Z,22.40
2018-12-17T03:29:42.212Z,24.07
2018-12-17T03:32:11.225Z,21.40
2018-12-17T03:34:40.248Z,24.40
2018-12-17T03:37:09.316Z,22.17
2018-12-17T03:39:38.377Z,21.90
2018-12-17T03:42:07.806Z,22.23
2018-12-17T03:44:37.143Z,22.13
2018-12-17T03:47:06.323Z,22.97
2018-12-17T03:49:35.489Z,20.87
2018-12-17T03:52:04.573Z,24.77
2018-12-17T03:54:33.653Z,22.67
2018-12-17T03:57:02.724Z,24.10
2018-12-17T03:59:31.892Z,23.33
2018-12-17T04:02:00.929Z,22.50
2018-12-17T04:04:29.961Z,23.07
2018-12-17T04:06:59.174Z,23.90
2018-12-17T04:09:28.289Z,22.10
2018-12-17T04:11:57.618Z,23.37
2018-12-17T04:14:26.795Z,23.73
2018-12-17T04:16:56.251Z,22.53
2018-12-17T04:19:25.365Z,22.30
2018-12-17T04:21:54.473Z,23.67
2018-12-17T04:24:23.549Z,22.60
2018-12-17T04:26:52.608Z,22.30
2018-12-17T04:29:21.661Z,22.17
2018-12-17T04:31:50.947Z,23.50
2018-12-17T04:34:20.061Z,24.03
2018-12-17T04:36:49.258Z,24.73
2018-12-17T04:39:18.435Z,25.00
2018-12-17T04:41:47.679Z,23.43
2018-12-17T04:44:16.782Z,23.60
2018-12-17T04:46:45.840Z,26.93
2018-12-17T04:49:14.856Z,26.40
2018-12-17T04:51:43.888Z,26.20
2018-12-17T04:54:12.922Z,26.50
2018-12-17T04:56:41.996Z,26.17
2018-12-17T04:59:14.539Z,25.97
2018-12-17T05:01:42.033Z,26.13
2018-12-17T05:04:11.115Z,24.60
2018-12-17T05:06:40.267Z,24.93
2018-12-17T05:09:09.544Z,24.50
2018-12-17T05:11:38.539Z,26.33
2018-12-17T05:14:07.526Z,25.30
2018-12-17T05:16:36.584Z,27.40
2018-12-17T05:19:05.679Z,23.93
2018-12-17T05:21:34.739Z,25.80
2018-12-17T05:24:03.929Z,25.60
2018-12-17T05:26:32.986Z,26.87
2018-12-17T05:29:02.083Z,27.87
2018-12-17T05:31:31.136Z,28.17
2018-12-17T05:34:01.285Z,27.77
2018-12-17T05:36:30.323Z,28.07
2018-12-17T05:38:59.398Z,27.43
2018-12-17T05:41:28.540Z,28.67
2018-12-17T05:43:57.696Z,27.47
2018-12-17T05:46:26.769Z,31.43
2018-12-17T05:48:55.854Z,27.53
2018-12-17T05:51:24.841Z,26.83
2018-12-17T05:53:53.950Z,30.37
2018-12-17T05:56:23.091Z,28.33
2018-12-17T05:58:52.164Z,29.77
2018-12-17T06:01:21.275Z,27.50
2018-12-17T06:03:50.403Z,28.00
2018-12-17T06:06:19.486Z,29.63
2018-12-17T06:08:48.533Z,28.33
2018-12-17T06:11:17.605Z,27.00
2018-12-17T06:13:46.683Z,28.27
2018-12-17T06:16:15.917Z,28.37
2018-12-17T06:18:44.984Z,29.27
2018-12-17T06:21:14.115Z,28.60
2018-12-17T06:23:43.120Z,26.03
2018-12-17T06:26:12.173Z,27.53
2018-12-17T06:28:41.319Z,30.07
2018-12-17T06:31:10.455Z,29.10
2018-12-17T06:33:39.485Z,26.43
2018-12-17T06:36:08.622Z,30.03
2018-12-17T06:38:37.699Z,28.17
2018-12-17T06:41:06.729Z,28.13
2018-12-17T06:43:35.786Z,27.93
2018-12-17T06:46:04.865Z,29.37
2018-12-17T06:48:33.930Z,26.87
2018-12-17T06:51:02.925Z,26.87
2018-12-17T06:53:32.018Z,27.20
2018-12-17T06:56:01.083Z,27.43
2018-12-17T06:58:31.073Z,27.87
2018-12-17T07:01:00.194Z,25.67
2018-12-17T07:03:29.185Z,27.77
2018-12-17T07:05:58.313Z,26.27
2018-12-17T07:08:27.541Z,25.97
2018-12-17T07:10:56.573Z,26.63
2018-12-17T07:13:25.663Z,26.30
2018-12-17T07:15:54.837Z,27.07
2018-12-17T07:18:24.159Z,25.30
2018-12-17T07:20:53.316Z,24.23
2018-12-17T07:23:22.731Z,23.20
2018-12-17T07:25:51.807Z,25.00
2018-12-17T07:28:20.837Z,25.10
2018-12-17T07:30:49.863Z,25.03
2018-12-17T07:33:18.920Z,23.77
2018-12-17T07:35:47.947Z,23.67
2018-12-17T07:38:17.005Z,22.97
2018-12-17T07:40:46.021Z,23.43
2018-12-17T07:43:16.101Z,24.10
2018-12-17T07:45:45.133Z,23.97
2018-12-17T07:48:14.282Z,26.27
2018-12-17T07:50:43.341Z,21.57
2018-12-17T07:53:12.408Z,24.03
2018-12-17T07:55:41.479Z,21.33
2018-12-17T07:58:11.053Z,20.67
2018-12-17T08:00:40.174Z,22.77
2018-12-17T08:03:09.179Z,20.37
2018-12-17T08:05:38.275Z,22.87
2018-12-17T08:08:07.345Z,21.23
2018-12-17T08:10:36.446Z,23.57
2018-12-17T08:13:05.687Z,22.17
2018-12-17T08:15:34.800Z,19.27
2018-12-17T08:18:15.106Z,21.50
2018-12-17T08:20:44.238Z,21.43
2018-12-17T08:23:13.271Z,19.33
2018-12-17T08:25:42.312Z,22.63
2018-12-17T08:28:11.401Z,19.33
2018-12-17T08:30:40.471Z,20.67
2018-12-17T08:33:09.626Z,21.07
2018-12-17T08:35:38.607Z,21.70
2018-12-17T08:38:07.685Z,20.37
2018-12-17T08:40:36.781Z,22.17
2018-12-17T08:43:05.802Z,19.97
2018-12-17T08:45:34.881Z,19.47
2018-12-17T08:48:03.988Z,20.73
2018-12-17T08:50:33.057Z,21.20
2018-12-17T08:53:02.101Z,18.53
2018-12-17T08:55:31.216Z,18.67
2018-12-17T08:58:00.445Z,18.03
2018-12-17T09:00:29.616Z,17.70
2018-12-17T09:02:58.657Z,17.77
2018-12-17T09:05:27.592Z,18.73
2018-12-17T09:07:56.717Z,19.30
2018-12-17T09:10:26.882Z,19.23
2018-12-17T09:12:56.005Z,19.80
2018-12-17T09:15:25.066Z,18.93
2018-12-17T09:17:54.139Z,18.70
2018-12-17T09:20:23.309Z,20.57
2018-12-17T09:22:52.528Z,18.07
2018-12-17T09:25:22.730Z,22.50
2018-12-17T09:27:51.728Z,22.40
2018-12-17T09:30:20.806Z,20.80
2018-12-17T09:32:50.315Z,22.43
2018-12-17T09:35:19.293Z,18.80
2018-12-17T09:37:48.461Z,20.43
2018-12-17T09:40:18.069Z,20.57
2018-12-17T09:42:47.157Z,22.97
2018-12-17T09:45:16.277Z,23.03
2018-12-17T09:47:45.707Z,23.17
2018-12-17T09:50:16.624Z,25.33
2018-12-17T09:52:46.141Z,21.73
2018-12-17T09:55:15.340Z,21.90
2018-12-17T09:57:45.486Z,20.80
2018-12-17T10:00:14.725Z,19.40
2018-12-17T10:02:43.873Z,22.07
2018-12-17T10:05:12.995Z,20.27
2018-12-17T10:07:42.223Z,19.10
2018-12-17T10:10:11.353Z,21.20
2018-12-17T10:12:40.711Z,18.60
2018-12-17T10:15:09.906Z,20.43
2018-12-17T10:17:39.080Z,17.50
2018-12-17T10:20:08.144Z,18.53
2018-12-17T10:22:37.260Z,19.67
2018-12-17T10:25:06.495Z,18.83
2018-12-17T10:27:36.642Z,19.47
2018-12-17T10:30:06.715Z,16.60
2018-12-17T10:32:36.220Z,19.00
2018-12-17T10:35:05.602Z,17.97
2018-12-17T10:37:34.561Z,19.27
2018-12-17T10:40:04.345Z,17.60
2018-12-17T10:42:33.273Z,17.33
2018-12-17T10:45:02.298Z,17.07
2018-12-17T10:47:31.463Z,17.37
2018-12-17T10:50:00.497Z,17.10
2018-12-17T10:52:29.546Z,16.43
2018-12-17T10:54:59.428Z,17.13
2018-12-17T10:57:28.646Z,15.53
2018-12-17T10:59:57.617Z,15.87
2018-12-17T11:02:34.076Z,15.57
2018-12-17T11:05:09.673Z,14.27
2018-12-17T11:07:38.776Z,15.03
2018-12-17T11:10:08.871Z,15.77
2018-12-17T11:12:38.223Z,15.37
2018-12-17T11:15:09.592Z,14.97
2018-12-17T11:17:38.940Z,13.60
2018-12-17T11:20:09.870Z,14.37
2018-12-17T11:22:39.455Z,14.83
2018-12-17T11:25:08.548Z,13.93
2018-12-17T11:27:37.619Z,14.70
2018-12-17T11:30:09.466Z,12.20
2018-12-17T11:32:43.535Z,13.43
2018-12-17T11:35:13.125Z,12.90
2018-12-17T11:37:42.256Z,13.63
2018-12-17T11:40:11.399Z,12.40
2018-12-17T11:42:40.385Z,12.90
2018-12-17T11:45:09.411Z,13.53
2018-12-17T11:47:39.083Z,11.80
2018-12-17T11:50:08.584Z,13.73
2018-12-17T11:52:38.008Z,13.67
2018-12-17T11:55:07.247Z,12.60
2018-12-17T11:57:49.392Z,12.33
2018-12-17T12:00:21.208Z,12.53
2018-12-17T12:02:50.245Z,12.00
2018-12-17T12:05:19.271Z,12.40
2018-12-17T12:07:48.260Z,11.83
2018-12-17T12:10:17.239Z,12.47
2018-12-17T12:12:46.333Z,9.40
2018-12-17T12:15:15.373Z,11.63
2018-12-17T12:17:44.479Z,12.40
2018-12-17T12:20:13.534Z,11.33
2018-12-17T12:22:42.577Z,11.20
2018-12-17T12:25:11.585Z,11.97
2018-12-17T12:27:40.653Z,10.87
2018-12-17T12:30:10.925Z,9.80
2018-12-17T12:32:40.084Z,9.87
2018-12-17T12:35:10.682Z,10.53
2018-12-17T12:37:39.725Z,10.23
2018-12-17T12:40:09.618Z,10.13
2018-12-17T12:42:38.652Z,10.47
2018-12-17T12:45:08.103Z,10.10
2018-12-17T12:47:37.136Z,11.60
2018-12-17T12:50:07.336Z,11.60
2018-12-17T12:52:36.746Z,9.87
2018-12-17T12:55:06.302Z,9.83
2018-12-17T12:57:35.425Z,10.63
2018-12-17T13:00:07.530Z,9.43
2018-12-17T13:02:36.979Z,8.13
2018-12-17T13:05:06.450Z,10.17
2018-12-17T13:07:35.423Z,9.40
2018-12-17T13:10:07.686Z,10.37
2018-12-17T13:12:36.806Z,9.50
2018-12-17T13:15:07.394Z,9.43
2018-12-17T13:17:36.670Z,9.10
2018-12-17T13:20:07.623Z,9.57
2018-12-17T13:22:36.812Z,8.67
2018-12-17T13:25:08.611Z,8.87
2018-12-17T13:27:37.603Z,8.80
2018-12-17T13:30:08.892Z,8.00
2018-12-17T13:32:38.147Z,8.73
2018-12-17T13:35:08.339Z,7.20
2018-12-17T13:37:37.386Z,8.70
2018-12-17T13:40:08.714Z,8.67
2018-12-17T13:42:37.707Z,9.07
2018-12-17T13:45:06.868Z,8.63
2018-12-17T13:47:35.986Z,8.47
2018-12-17T13:50:10.625Z,9.27
2018-12-17T13:52:45.929Z,7.50
2018-12-17T13:55:16.004Z,7.67
2018-12-17T13:57:45.063Z,8.23
2018-12-17T14:00:14.277Z,7.83
2018-12-17T14:02:43.342Z,7.10
2018-12-17T14:05:12.414Z,7.20
2018-12-17T14:07:41.560Z,7.83
2018-12-17T14:10:16.524Z,7.57
2018-12-17T14:12:45.586Z,7.60
2018-12-17T14:15:14.636Z,7.50
2018-12-17T14:17:47.646Z,7.70
2018-12-17T14:20:22.177Z,7.57
2018-12-17T14:22:52.253Z,7.37
2018-12-17T14:25:21.295Z,7.53
2018-12-17T14:27:50.299Z,8.73
2018-12-17T14:30:19.414Z,9.10
2018-12-17T14:32:48.563Z,7.67
2018-12-17T14:35:17.547Z,7.97
2018-12-17T14:37:51.915Z,6.80
2018-12-17T14:40:20.949Z,7.40
2018-12-17T14:42:49.939Z,7.63
2018-12-17T14:45:18.920Z,8.90
2018-12-17T14:47:48.125Z,7.60
2018-12-17T14:50:17.155Z,9.47
2018-12-17T14:52:47.398Z,9.10
2018-12-17T14:55:16.448Z,8.50
2018-12-17T14:57:45.461Z,11.07
2018-12-17T15:00:14.576Z,9.10
2018-12-17T15:02:43.596Z,7.63
2018-12-17T15:05:12.757Z,7.97
2018-12-17T15:07:41.735Z,6.83
2018-12-17T15:10:10.758Z,7.70
2018-12-17T15:12:39.835Z,8.07
2018-12-17T15:15:10.192Z,8.03
2018-12-17T15:17:39.479Z,8.93
2018-12-17T15:20:09.204Z,7.93
2018-12-17T15:22:38.183Z,7.63
2018-12-17T15:25:08.278Z,8.97
2018-12-17T15:27:37.354Z,8.03
2018-12-17T15:30:06.765Z,7.93
2018-12-17T15:32:35.863Z,8.97
2018-12-17T15:35:05.409Z,7.67
2018-12-17T15:37:34.451Z,7.77
2018-12-17T15:40:03.687Z,8.00
2018-12-17T15:42:32.651Z,8.93
2018-12-17T15:45:01.649Z,11.07
2018-12-17T15:47:30.679Z,15.43
2018-12-17T15:49:59.848Z,9.17
2018-12-17T15:52:28.823Z,9.27
2018-12-17T15:54:57.932Z,8.77
2018-12-17T15:57:26.965Z,8.27
2018-12-17T15:59:56.046Z,8.77
2018-12-17T16:02:25.266Z,7.67
2018-12-17T16:04:54.479Z,9.80
2018-12-17T16:07:23.543Z,8.47
2018-12-17T16:09:56.037Z,8.43
2018-12-17T16:12:25.348Z,9.17
2018-12-17T16:15:00.939Z,9.07
2018-12-17T16:17:29.966Z,8.90
2018-12-17T16:19:58.955Z,9.50
2018-12-17T16:22:27.973Z,9.03
2018-12-17T16:24:57.143Z,9.83
2018-12-17T16:27:26.108Z,10.33
2018-12-17T16:29:55.133Z,10.03
2018-12-17T16:32:24.269Z,10.77
2018-12-17T16:34:53.288Z,11.60
2018-12-17T16:37:22.280Z,11.90
2018-12-17T16:39:51.252Z,11.63
2018-12-17T16:42:20.364Z,12.63
2018-12-17T16:44:49.455Z,11.23
2018-12-17T16:47:18.403Z,10.80
2018-12-17T16:49:47.437Z,12.57
2018-12-17T16:52:16.438Z,10.97
2018-12-17T16:54:45.408Z,11.50
2018-12-17T16:57:14.446Z,12.40
2018-12-17T16:59:43.552Z,11.60
2018-12-17T17:02:12.629Z,11.43
2018-12-17T17:04:41.634Z,11.87
2018-12-17T17:07:10.737Z,11.07
2018-12-17T17:09:39.823Z,11.37
2018-12-17T17:12:09.121Z,12.20
2018-12-17T17:14:38.230Z,12.47
2018-12-17T17:17:07.216Z,12.23
2018-12-17T17:19:36.248Z,12.43
2018-12-17T17:22:05.269Z,13.30
2018-12-17T17:24:34.359Z,14.30
2018-12-17T17:27:03.454Z,13.77
2018-12-17T17:29:32.654Z,11.50
2018-12-17T17:32:01.722Z,13.17
2018-12-17T17:34:31.882Z,12.93
2018-12-17T17:37:00.989Z,11.97
2018-12-17T17:39:30.007Z,12.30
2018-12-17T17:41:59.088Z,12.97
2018-12-17T17:44:28.171Z,12.07
2018-12-17T17:46:57.296Z,11.97
2018-12-17T17:49:26.347Z,11.20
2018-12-17T17:51:55.358Z,11.73
2018-12-17T17:54:24.407Z,13.90
2018-12-17T17:56:53.386Z,11.90
2018-12-17T17:59:22.585Z,9.77
2018-12-17T18:01:51.685Z,11.83
2018-12-17T18:04:20.677Z,12.70
2018-12-17T18:06:49.698Z,9.77
2018-12-17T18:09:18.808Z,10.37
2018-12-17T18:11:47.883Z,9.07
2018-12-17T18:14:16.948Z,10.00
2018-12-17T18:16:45.954Z,9.63
2018-12-17T18:19:14.908Z,11.07
2018-12-17T18:21:44.004Z,11.17
2018-12-17T18:24:13.052Z,10.20
2018-12-17T18:26:42.053Z,9.90
2018-12-17T18:29:11.169Z,11.90
2018-12-17T18:31:40.243Z,10.90
2018-12-17T18:34:09.260Z,12.27
2018-12-17T18:36:38.239Z,12.47
2018-12-17T18:39:08.669Z,11.43
2018-12-17T18:41:39.773Z,12.63
2018-12-17T18:44:08.757Z,12.37
2018-12-17T18:46:37.737Z,12.90
2018-12-17T18:49:06.717Z,11.80
2018-12-17T18:51:36.117Z,12.33
2018-12-17T18:54:05.233Z,11.30
2018-12-17T18:56:34.239Z,11.43
2018-12-17T18:59:03.362Z,11.87
2018-12-17T19:01:32.444Z,9.97
2018-12-17T19:04:01.447Z,10.53
2018-12-17T19:06:31.579Z,10.50
2018-12-17T19:09:00.578Z,12.30
2018-12-17T19:11:31.616Z,12.00
2018-12-17T19:14:00.627Z,11.63
2018-12-17T19:16:29.737Z,11.73
2018-12-17T19:18:58.789Z,11.40
2018-12-17T19:21:27.763Z,11.07
2018-12-17T19:23:56.980Z,12.23
2018-12-17T19:26:25.995Z,12.67
2018-12-17T19:28:54.945Z,12.67
2018-12-17T19:31:23.955Z,11.67
2018-12-17T19:33:52.964Z,12.80
2018-12-17T19:36:21.996Z,13.10
2018-12-17T19:38:51.037Z,12.80
2018-12-17T19:41:20.031Z,12.80
2018-12-17T19:43:49.084Z,14.30
2018-12-17T19:46:18.179Z,11.73
2018-12-17T19:48:47.288Z,13.57
2018-12-17T19:51:16.237Z,13.80
2018-12-17T19:53:45.350Z,13.27
2018-12-17T19:56:14.384Z,12.70
2018-12-17T19:58:43.496Z,12.87
2018-12-17T20:01:12.592Z,13.83
2018-12-17T20:03:41.524Z,14.10
2018-12-17T20:06:10.532Z,14.07
2018-12-17T20:08:39.511Z,15.03
2018-12-17T20:11:08.611Z,15.17
2018-12-17T20:13:37.800Z,15.37
2018-12-17T20:16:06.897Z,15.97
2018-12-17T20:18:35.919Z,15.57
2018-12-17T20:21:04.968Z,15.43
2018-12-17T20:23:33.960Z,15.70
2018-12-17T20:26:03.098Z,15.90
2018-12-17T20:28:32.103Z,14.17
2018-12-17T20:31:01.161Z,15.93
2018-12-17T20:33:30.274Z,16.77
2018-12-17T20:35:59.347Z,15.70
2018-12-17T20:38:28.394Z,16.67
2018-12-17T20:40:57.430Z,15.33
2018-12-17T20:43:26.478Z,14.70
2018-12-17T20:45:55.534Z,14.87
2018-12-17T20:48:24.494Z,16.40
2018-12-17T20:50:53.449Z,15.87
2018-12-17T20:53:22.479Z,15.50
2018-12-17T20:55:51.471Z,16.23
2018-12-17T20:58:20.501Z,17.40
2018-12-17T21:00:49.526Z,17.17
2018-12-17T21:03:18.561Z,17.10
2018-12-17T21:05:48.116Z,16.67
2018-12-17T21:08:17.495Z,17.57
2018-12-17T21:10:46.623Z,17.47
2018-12-17T21:13:15.701Z,17.17
2018-12-17T21:15:44.787Z,15.17
2018-12-17T21:18:14.010Z,16.43
2018-12-17T21:20:43.012Z,16.77
2018-12-17T21:23:12.224Z,14.93
2018-12-17T21:25:41.371Z,15.83
2018-12-17T21:28:10.576Z,14.90
2018-12-17T21:30:39.604Z,16.20
2018-12-17T21:33:08.645Z,16.30
2018-12-17T21:35:38.740Z,17.17
2018-12-17T21:38:07.818Z,16.67
2018-12-17T21:40:37.010Z,15.83
2018-12-17T21:43:06.017Z,16.73
2018-12-17T21:45:35.017Z,15.70
2018-12-17T21:48:04.168Z,14.87
2018-12-17T21:50:33.446Z,15.17
2018-12-17T21:53:02.480Z,15.90
2018-12-17T21:55:31.544Z,15.03
2018-12-17T21:58:00.891Z,14.37
2018-12-17T22:00:31.208Z,12.47
2018-12-17T22:03:00.306Z,15.00
2018-12-17T22:05:29.411Z,15.17
2018-12-17T22:07:58.673Z,12.63
2018-12-17T22:10:31.897Z,12.97
2018-12-17T22:13:01.060Z,12.97
2018-12-17T22:15:30.403Z,12.53
2018-12-17T22:17:59.463Z,12.67
2018-12-17T22:20:28.696Z,13.20
2018-12-17T22:22:58.953Z,13.10
2018-12-17T22:25:29.232Z,13.57
2018-12-17T22:27:58.528Z,12.93
2018-12-17T22:30:27.719Z,13.27
2018-12-17T22:32:56.744Z,12.97
2018-12-17T22:35:25.943Z,14.40
2018-12-17T22:37:55.111Z,13.37
2018-12-17T22:40:24.300Z,13.13
2018-12-17T22:42:53.465Z,13.57
2018-12-17T22:45:22.490Z,12.60
2018-12-17T22:47:51.608Z,12.67
2018-12-17T22:50:20.604Z,13.83
2018-12-17T22:52:49.776Z,12.93
2018-12-17T22:55:19.377Z,12.67
2018-12-17T22:57:48.360Z,14.37
2018-12-17T23:00:17.414Z,13.33
2018-12-17T23:02:48.533Z,13.93
2018-12-17T23:05:17.610Z,12.40
2018-12-17T23:07:46.759Z,13.20
2018-12-17T23:10:27.064Z,13.30
2018-12-17T23:13:07.289Z,11.30
2018-12-17T23:15:47.490Z,12.87
2018-12-17T23:18:15.505Z,11.90
2018-12-17T23:20:46.535Z,13.20
2018-12-17T23:23:17.652Z,11.77
2018-12-17T23:25:48.634Z,12.47
2018-12-17T23:28:17.784Z,11.27
2018-12-17T23:30:46.861Z,11.70
2018-12-17T23:33:16.054Z,12.97
2018-12-17T23:35:45.225Z,11.57
2018-12-17T23:38:14.214Z,12.07
2018-12-17T23:40:43.215Z,11.17
2018-12-17T23:43:12.230Z,11.87
2018-12-17T23:45:41.341Z,13.40
2018-12-17T23:48:10.410Z,11.93
2018-12-17T23:50:39.530Z,11.00
2018-12-17T23:53:08.565Z,12.60
2018-12-17T23:55:37.551Z,12.03
2018-12-17T23:58:06.683Z,11.57
